createdAt,value
2019-03-23T00:01:49.855Z,18.30
2019-03-23T00:04:18.075Z,19.23
2019-03-23T00:06:46.337Z,18.87
2019-03-23T00:09:14.435Z,17.97
2019-03-23T00:11:42.488Z,19.10
2019-03-23T00:14:12.381Z,17.30
2019-03-23T00:16:40.521Z,19.10
2019-03-23T00:19:08.779Z,18.70
2019-03-23T00:21:36.910Z,17.97
2019-03-23T00:24:05.132Z,18.73
2019-03-23T00:26:34.337Z,18.87
2019-03-23T00:29:02.495Z,19.20
2019-03-23T00:31:31.884Z,18.20
2019-03-23T00:34:01.539Z,19.50
2019-03-23T00:36:40.818Z,19.67
2019-03-23T00:39:01.341Z,17.20
2019-03-23T00:41:31.098Z,18.87
2019-03-23T00:44:01.730Z,19.33
2019-03-23T00:46:29.718Z,18.93
2019-03-23T00:48:57.884Z,18.97
2019-03-23T00:51:26.043Z,17.57
2019-03-23T00:53:54.191Z,19.93
2019-03-23T00:56:22.459Z,20.27
2019-03-23T00:58:50.538Z,19.07
2019-03-23T01:01:18.816Z,19.87
2019-03-23T01:03:47.088Z,19.33
2019-03-23T01:06:15.251Z,19.00
2019-03-23T01:08:43.260Z,19.93
2019-03-23T01:11:11.492Z,18.50
2019-03-23T01:13:39.642Z,20.07
2019-03-23T01:16:07.834Z,19.97
2019-03-23T01:18:35.957Z,21.10
2019-03-23T01:21:04.067Z,21.00
2019-03-23T01:23:32.178Z,21.83
2019-03-23T01:26:00.347Z,21.57
2019-03-23T01:28:28.668Z,21.03
2019-03-23T01:30:56.799Z,20.37
2019-03-23T01:33:24.877Z,23.17
2019-03-23T01:35:52.917Z,22.10
2019-03-23T01:38:20.898Z,23.20
2019-03-23T01:40:49.037Z,24.77
2019-03-23T01:43:17.178Z,25.50
2019-03-23T01:45:46.357Z,24.20
2019-03-23T01:48:14.384Z,26.30
2019-03-23T01:50:42.532Z,25.67
2019-03-23T01:53:10.638Z,23.97
2019-03-23T01:55:39.720Z,22.67
2019-03-23T01:58:07.827Z,22.97
2019-03-23T02:00:36.054Z,23.43
2019-03-23T02:03:04.158Z,22.53
2019-03-23T02:05:32.348Z,22.50
2019-03-23T02:08:00.388Z,22.30
2019-03-23T02:10:28.550Z,25.57
2019-03-23T02:12:56.656Z,24.67
2019-03-23T02:15:24.743Z,25.60
2019-03-23T02:17:52.816Z,26.53
2019-03-23T02:20:21.018Z,27.90
2019-03-23T02:22:48.977Z,26.63
2019-03-23T02:25:17.029Z,28.10
2019-03-23T02:27:45.094Z,27.77
2019-03-23T02:30:13.418Z,27.10
2019-03-23T02:32:41.508Z,25.07
2019-03-23T02:35:09.978Z,27.97
2019-03-23T02:37:39.006Z,26.73
2019-03-23T02:40:07.899Z,26.70
2019-03-23T02:42:36.049Z,27.53
2019-03-23T02:45:04.876Z,28.47
2019-03-23T02:47:32.989Z,27.33
2019-03-23T02:50:02.325Z,26.63
2019-03-23T02:52:30.818Z,25.60
2019-03-23T02:54:59.087Z,28.40
2019-03-23T02:57:27.257Z,25.80
2019-03-23T02:59:55.343Z,29.57
2019-03-23T03:02:24.767Z,28.37
2019-03-23T03:04:54.569Z,27.53
2019-03-23T03:07:23.900Z,27.70
2019-03-23T03:09:51.903Z,28.47
2019-03-23T03:12:20.028Z,27.87
2019-03-23T03:14:48.149Z,28.17
2019-03-23T03:17:16.464Z,29.13
2019-03-23T03:19:45.567Z,29.83
2019-03-23T03:22:13.653Z,28.40
2019-03-23T03:24:41.654Z,31.27
2019-03-23T03:27:09.801Z,30.27
2019-03-23T03:29:37.990Z,28.30
2019-03-23T03:32:07.238Z,28.43
2019-03-23T03:34:35.347Z,29.03
2019-03-23T03:37:03.574Z,28.87
2019-03-23T03:39:31.823Z,30.23
2019-03-23T03:41:59.953Z,29.20
2019-03-23T03:44:28.161Z,27.20
2019-03-23T03:46:56.146Z,27.13
2019-03-23T03:49:24.310Z,28.83
2019-03-23T03:51:52.450Z,27.07
2019-03-23T03:54:20.489Z,25.77
2019-03-23T03:56:48.588Z,28.77
2019-03-23T03:59:16.700Z,28.17
2019-03-23T04:01:46.387Z,26.47
2019-03-23T04:04:14.467Z,25.40
2019-03-23T04:06:42.530Z,24.53
2019-03-23T04:09:12.407Z,26.13
2019-03-23T04:11:40.508Z,25.97
2019-03-23T04:14:08.599Z,25.37
2019-03-23T04:16:36.708Z,24.63
2019-03-23T04:19:04.834Z,26.33
2019-03-23T04:21:32.985Z,25.63
2019-03-23T04:24:01.088Z,25.93
2019-03-23T04:26:29.212Z,28.13
2019-03-23T04:28:57.299Z,29.13
2019-03-23T04:31:25.430Z,27.23
2019-03-23T04:33:53.472Z,24.93
2019-03-23T04:36:21.632Z,25.67
2019-03-23T04:38:49.778Z,28.23
2019-03-23T04:41:19.064Z,28.47
2019-03-23T04:43:47.130Z,27.53
2019-03-23T04:46:15.207Z,28.83
2019-03-23T04:48:44.562Z,27.90
2019-03-23T04:51:12.746Z,26.43
2019-03-23T04:53:40.781Z,26.00
2019-03-23T04:56:10.138Z,27.07
2019-03-23T04:58:38.300Z,27.20
2019-03-23T05:01:09.650Z,27.53
2019-03-23T05:03:37.726Z,25.37
2019-03-23T05:06:05.715Z,25.03
2019-03-23T05:08:33.892Z,25.33
2019-03-23T05:11:02.052Z,25.17
2019-03-23T05:13:30.318Z,24.73
2019-03-23T05:15:58.363Z,25.17
2019-03-23T05:18:26.585Z,26.17
2019-03-23T05:20:54.814Z,25.53
2019-03-23T05:23:23.120Z,26.43
2019-03-23T05:25:51.472Z,26.37
2019-03-23T05:28:22.876Z,25.87
2019-03-23T05:30:50.814Z,28.43
2019-03-23T05:33:19.044Z,27.27
2019-03-23T05:35:47.212Z,30.77
2019-03-23T05:38:15.453Z,30.20
2019-03-23T05:40:43.456Z,27.00
2019-03-23T05:43:11.660Z,29.60
2019-03-23T05:45:39.756Z,27.90
2019-03-23T05:48:07.740Z,28.67
2019-03-23T05:50:35.769Z,27.77
2019-03-23T05:53:03.925Z,29.20
2019-03-23T05:55:32.161Z,29.50
2019-03-23T05:58:01.113Z,30.23
2019-03-23T06:00:29.167Z,29.50
2019-03-23T06:02:58.811Z,30.07
2019-03-23T06:05:46.104Z,29.03
2019-03-23T06:08:14.270Z,28.73
2019-03-23T06:10:42.366Z,28.30
2019-03-23T06:13:10.439Z,31.67
2019-03-23T06:15:38.543Z,32.87
2019-03-23T06:18:06.560Z,28.40
2019-03-23T06:20:34.933Z,30.23
2019-03-23T06:23:04.336Z,29.00
2019-03-23T06:25:32.365Z,28.57
2019-03-23T06:28:00.445Z,26.80
2019-03-23T06:30:28.634Z,24.50
2019-03-23T06:32:59.269Z,27.27
2019-03-23T06:35:26.807Z,27.00
2019-03-23T06:37:54.789Z,26.60
2019-03-23T06:40:23.003Z,30.47
2019-03-23T06:42:59.404Z,31.07
2019-03-23T06:45:21.434Z,30.23
2019-03-23T06:47:49.667Z,29.67
2019-03-23T06:50:18.130Z,31.47
2019-03-23T06:52:46.966Z,29.37
2019-03-23T06:55:15.142Z,29.33
2019-03-23T06:57:43.173Z,29.50
2019-03-23T07:00:11.725Z,29.17
2019-03-23T07:02:39.881Z,33.33
2019-03-23T07:05:08.566Z,29.43
2019-03-23T07:07:36.791Z,30.30
2019-03-23T07:10:06.602Z,30.40
2019-03-23T07:12:34.813Z,30.40
2019-03-23T07:15:03.397Z,29.07
2019-03-23T07:17:31.743Z,28.53
2019-03-23T07:19:59.737Z,29.13
2019-03-23T07:22:27.949Z,30.57
2019-03-23T07:24:56.074Z,31.57
2019-03-23T07:27:24.277Z,36.20
2019-03-23T07:29:52.447Z,42.87
2019-03-23T07:32:39.688Z,43.47
2019-03-23T07:35:09.924Z,46.10
2019-03-23T07:37:38.064Z,45.07
2019-03-23T07:40:06.959Z,44.50
2019-03-23T07:42:35.190Z,43.43
2019-03-23T07:45:04.391Z,41.40
2019-03-23T07:47:32.635Z,40.17
2019-03-23T07:50:00.630Z,45.60
2019-03-23T07:52:28.685Z,44.33
2019-03-23T07:54:59.608Z,41.30
2019-03-23T07:57:30.546Z,41.90
2019-03-23T07:59:58.662Z,41.93
2019-03-23T08:02:28.481Z,47.00
2019-03-23T08:04:56.738Z,45.60
2019-03-23T08:07:24.922Z,49.50
2019-03-23T08:09:52.921Z,48.17
2019-03-23T08:12:20.926Z,47.00
2019-03-23T08:14:51.084Z,48.07
2019-03-23T08:17:19.562Z,52.63
2019-03-23T08:19:47.754Z,49.97
2019-03-23T08:22:17.129Z,55.47
2019-03-23T08:24:45.276Z,52.10
2019-03-23T08:27:13.327Z,52.20
2019-03-23T08:29:41.486Z,50.40
2019-03-23T08:32:09.736Z,50.50
2019-03-23T08:34:37.924Z,50.13
2019-03-23T08:37:06.296Z,52.20
2019-03-23T08:39:34.438Z,50.50
2019-03-23T08:42:02.666Z,49.80
2019-03-23T08:44:31.697Z,50.37
2019-03-23T08:46:59.933Z,49.70
2019-03-23T08:49:28.698Z,49.77
2019-03-23T08:51:58.090Z,48.87
2019-03-23T08:54:26.258Z,48.67
2019-03-23T08:56:54.574Z,49.30
2019-03-23T08:59:22.623Z,46.30
2019-03-23T09:01:50.817Z,48.70
2019-03-23T09:04:19.046Z,46.30
2019-03-23T09:06:47.072Z,48.83
2019-03-23T09:09:15.204Z,50.00
2019-03-23T09:11:43.481Z,44.47
2019-03-23T09:14:11.594Z,45.77
2019-03-23T09:16:40.026Z,48.00
2019-03-23T09:19:08.222Z,47.57
2019-03-23T09:21:36.330Z,46.70
2019-03-23T09:24:04.558Z,44.87
2019-03-23T09:26:32.619Z,47.20
2019-03-23T09:29:00.868Z,47.17
2019-03-23T09:31:30.199Z,45.47
2019-03-23T09:33:58.331Z,47.83
2019-03-23T09:36:26.518Z,45.73
2019-03-23T09:38:54.562Z,44.10
2019-03-23T09:41:22.686Z,46.00
2019-03-23T09:43:50.886Z,48.00
2019-03-23T09:46:18.951Z,47.70
2019-03-23T09:48:47.179Z,45.63
2019-03-23T09:51:17.057Z,49.70
2019-03-23T09:53:45.114Z,45.80
2019-03-23T09:56:13.361Z,47.50
2019-03-23T09:58:41.520Z,45.20
2019-03-23T10:01:09.622Z,45.67
2019-03-23T10:03:37.822Z,48.63
2019-03-23T10:06:06.095Z,48.83
2019-03-23T10:08:34.471Z,46.40
2019-03-23T10:11:02.672Z,51.47
2019-03-23T10:13:30.899Z,47.90
2019-03-23T10:15:58.927Z,48.50
2019-03-23T10:18:27.183Z,46.90
2019-03-23T10:20:55.483Z,47.83
2019-03-23T10:23:25.901Z,47.80
2019-03-23T10:25:54.016Z,49.33
2019-03-23T10:28:22.211Z,48.50
2019-03-23T10:30:50.459Z,47.57
2019-03-23T10:33:18.634Z,47.87
2019-03-23T10:35:46.863Z,44.57
2019-03-23T10:38:15.065Z,47.10
2019-03-23T10:40:43.129Z,46.60
2019-03-23T10:43:11.206Z,46.00
2019-03-23T10:45:44.047Z,43.93
2019-03-23T10:48:12.144Z,45.40
2019-03-23T10:50:40.388Z,46.37
2019-03-23T10:53:08.401Z,43.93
2019-03-23T10:55:36.468Z,45.97
2019-03-23T10:58:04.605Z,45.33
2019-03-23T11:00:34.747Z,47.57
2019-03-23T11:03:03.122Z,43.97
2019-03-23T11:05:31.334Z,46.80
2019-03-23T11:07:59.610Z,45.77
2019-03-23T11:10:27.787Z,46.87
2019-03-23T11:12:56.038Z,47.97
2019-03-23T11:15:24.086Z,46.23
2019-03-23T11:17:52.204Z,43.83
2019-03-23T11:20:20.398Z,47.57
2019-03-23T11:22:48.646Z,43.37
2019-03-23T11:25:16.756Z,46.30
2019-03-23T11:27:44.860Z,45.47
2019-03-23T11:30:13.671Z,45.53
2019-03-23T11:32:41.849Z,43.93
2019-03-23T11:35:10.289Z,45.63
2019-03-23T11:37:37.856Z,45.83
2019-03-23T11:40:07.651Z,42.27
2019-03-23T11:42:48.787Z,45.07
2019-03-23T11:45:09.109Z,44.70
2019-03-23T11:47:37.218Z,42.87
2019-03-23T11:50:07.235Z,42.60
2019-03-23T11:52:35.372Z,42.00
2019-03-23T11:55:07.438Z,42.27
2019-03-23T11:57:35.695Z,42.40
2019-03-23T12:00:04.561Z,41.87
2019-03-23T12:02:32.821Z,42.40
2019-03-23T12:05:00.857Z,43.70
2019-03-23T12:07:30.830Z,42.53
2019-03-23T12:09:58.946Z,44.20
2019-03-23T12:12:27.059Z,41.40
2019-03-23T12:14:55.245Z,43.80
2019-03-23T12:17:23.301Z,42.13
2019-03-23T12:19:51.376Z,43.20
2019-03-23T12:22:19.560Z,46.07
2019-03-23T12:24:50.610Z,40.43
2019-03-23T12:27:20.565Z,43.57
2019-03-23T12:29:48.596Z,42.50
2019-03-23T12:32:16.770Z,41.70
2019-03-23T12:34:44.779Z,43.77
2019-03-23T12:37:13.092Z,44.73
2019-03-23T12:39:41.174Z,39.80
2019-03-23T12:42:09.347Z,40.27
2019-03-23T12:44:37.372Z,42.60
2019-03-23T12:47:05.647Z,41.80
2019-03-23T12:49:33.754Z,44.93
2019-03-23T12:52:01.891Z,40.40
2019-03-23T12:54:30.102Z,40.00
2019-03-23T12:56:58.254Z,40.10
2019-03-23T12:59:26.413Z,39.90
2019-03-23T13:01:54.567Z,39.83
2019-03-23T13:04:24.566Z,40.93
2019-03-23T13:06:52.652Z,39.47
2019-03-23T13:09:20.729Z,43.23
2019-03-23T13:11:48.993Z,42.77
2019-03-23T13:14:17.039Z,40.73
2019-03-23T13:16:47.008Z,40.93
2019-03-23T13:19:15.055Z,40.20
2019-03-23T13:21:43.297Z,39.27
2019-03-23T13:24:11.402Z,40.27
2019-03-23T13:26:39.653Z,38.27
2019-03-23T13:29:07.865Z,38.67
2019-03-23T13:31:36.069Z,40.50
2019-03-23T13:34:06.285Z,36.47
2019-03-23T13:36:34.261Z,38.23
2019-03-23T13:39:03.607Z,37.33
2019-03-23T13:41:31.843Z,36.27
2019-03-23T13:44:00.005Z,38.20
2019-03-23T13:46:28.248Z,34.27
2019-03-23T13:48:56.460Z,33.03
2019-03-23T13:51:24.788Z,39.03
2019-03-23T13:53:52.922Z,33.83
2019-03-23T13:56:21.175Z,36.47
2019-03-23T13:58:49.245Z,36.00
2019-03-23T14:01:17.392Z,40.00
2019-03-23T14:03:45.658Z,34.97
2019-03-23T14:06:13.812Z,35.50
2019-03-23T14:08:41.989Z,31.40
2019-03-23T14:11:10.156Z,34.83
2019-03-23T14:13:38.326Z,31.47
2019-03-23T14:16:06.480Z,30.47
2019-03-23T14:18:35.865Z,34.87
2019-03-23T14:21:04.181Z,30.43
2019-03-23T14:23:32.333Z,29.23
2019-03-23T14:26:00.503Z,27.80
2019-03-23T14:28:28.688Z,30.90
2019-03-23T14:30:56.907Z,29.80
2019-03-23T14:33:25.160Z,26.90
2019-03-23T14:35:53.438Z,24.73
2019-03-23T14:38:21.679Z,28.20
2019-03-23T14:40:49.860Z,29.50
2019-03-23T14:43:18.164Z,28.50
2019-03-23T14:45:46.482Z,25.50
2019-03-23T14:48:14.681Z,26.43
2019-03-23T14:50:42.925Z,26.27
2019-03-23T14:53:11.170Z,25.67
2019-03-23T14:55:39.382Z,27.27
2019-03-23T14:58:07.554Z,25.10
2019-03-23T15:00:35.666Z,26.37
2019-03-23T15:03:04.156Z,27.47
2019-03-23T16:45:36.994Z,30.50
2019-03-23T16:48:05.312Z,26.70
2019-03-23T16:50:33.444Z,28.63
2019-03-23T16:53:01.622Z,29.63
2019-03-23T16:55:29.763Z,27.77
2019-03-23T16:57:57.857Z,26.03
2019-03-23T17:00:36.415Z,27.37
2019-03-23T17:03:05.023Z,28.10
2019-03-23T17:05:33.095Z,28.17
2019-03-23T17:08:01.175Z,29.83
2019-03-23T17:10:29.519Z,30.13
2019-03-23T17:12:57.717Z,28.30
2019-03-23T17:15:25.879Z,29.60
2019-03-23T17:17:54.007Z,27.77
2019-03-23T17:20:22.163Z,29.03
2019-03-23T17:22:50.323Z,29.57
2019-03-23T17:25:18.515Z,29.03
2019-03-23T17:27:46.721Z,29.57
2019-03-23T17:30:15.601Z,28.17
2019-03-23T17:32:43.767Z,28.00
2019-03-23T17:35:11.935Z,27.40
2019-03-23T17:37:40.059Z,30.87
2019-03-23T17:40:08.313Z,32.37
2019-03-23T17:42:36.470Z,30.50
2019-03-23T17:45:04.779Z,28.30
2019-03-23T17:47:32.865Z,32.53
2019-03-23T17:50:00.921Z,33.93
2019-03-23T17:52:29.066Z,35.10
2019-03-23T17:54:57.206Z,31.00
2019-03-23T17:57:25.386Z,33.23
2019-03-23T17:59:53.471Z,31.10
2019-03-23T18:02:21.476Z,31.17
2019-03-23T18:04:49.642Z,32.93
2019-03-23T18:07:17.682Z,31.93
2019-03-23T18:09:45.853Z,30.50
2019-03-23T18:12:13.951Z,29.33
2019-03-23T18:14:41.982Z,29.67
2019-03-23T18:17:10.138Z,30.27
2019-03-23T18:19:38.237Z,30.80
2019-03-23T18:22:06.257Z,33.20
2019-03-23T18:24:34.448Z,31.77
2019-03-23T18:27:02.578Z,33.97
2019-03-23T18:29:30.770Z,34.43
2019-03-23T18:31:58.949Z,33.70
2019-03-23T18:34:27.121Z,31.37
2019-03-23T18:36:55.682Z,32.77
2019-03-23T18:39:23.860Z,33.53
2019-03-23T18:41:51.918Z,34.60
2019-03-23T18:44:20.036Z,35.10
2019-03-23T18:46:48.204Z,35.80
2019-03-23T18:49:16.480Z,33.23
2019-03-23T18:51:44.608Z,34.27
2019-03-23T18:54:13.917Z,34.90
2019-03-23T18:56:42.092Z,34.20
2019-03-23T18:59:10.258Z,35.93
2019-03-23T19:01:38.438Z,34.77
2019-03-23T19:04:06.589Z,35.50
2019-03-23T19:06:41.837Z,34.43
2019-03-23T19:09:09.959Z,35.63
2019-03-23T19:11:38.164Z,35.20
2019-03-23T19:14:06.312Z,32.93
2019-03-23T19:16:34.355Z,32.70
2019-03-23T19:19:02.494Z,32.13
2019-03-23T19:21:31.791Z,32.77
2019-03-23T19:23:59.956Z,33.70
2019-03-23T19:26:28.061Z,33.80
2019-03-23T19:28:56.446Z,34.13
2019-03-23T19:31:24.802Z,32.73
2019-03-23T19:33:54.741Z,32.03
2019-03-23T19:36:23.038Z,31.93
2019-03-23T19:38:51.266Z,33.60
2019-03-23T19:41:19.374Z,29.57
2019-03-23T19:43:51.678Z,29.37
2019-03-23T19:46:18.828Z,29.07
2019-03-23T19:48:47.206Z,28.57
2019-03-23T19:51:15.587Z,30.17
2019-03-23T19:53:43.778Z,29.00
2019-03-23T19:56:11.965Z,29.53
2019-03-23T19:58:40.157Z,31.33
2019-03-23T20:01:09.624Z,32.60
2019-03-23T20:03:37.868Z,31.20
2019-03-23T20:06:07.922Z,31.13
2019-03-23T20:08:36.210Z,28.63
2019-03-23T20:11:05.514Z,30.30
2019-03-23T20:13:33.835Z,29.67
2019-03-23T20:16:03.867Z,29.87
2019-03-23T20:18:33.969Z,28.27
2019-03-23T20:21:02.103Z,29.57
2019-03-23T20:23:30.380Z,28.63
2019-03-23T20:25:58.643Z,27.80
2019-03-23T20:28:28.660Z,29.07
2019-03-23T20:30:57.218Z,30.17
2019-03-23T20:33:44.622Z,26.97
2019-03-23T20:36:12.771Z,27.03
2019-03-23T20:38:41.246Z,26.67
2019-03-23T20:41:09.451Z,26.97
2019-03-23T20:43:37.640Z,26.43
2019-03-23T20:46:06.075Z,27.63
2019-03-23T20:48:36.459Z,25.57
2019-03-23T20:51:04.319Z,23.70
2019-03-23T20:53:32.877Z,23.33
2019-03-23T20:56:00.927Z,22.50
2019-03-23T20:58:29.006Z,18.33
2019-03-23T21:00:57.165Z,18.77
2019-03-23T21:03:25.303Z,17.30
2019-03-23T21:05:53.720Z,16.80
2019-03-23T21:08:21.832Z,15.80
2019-03-23T21:10:50.371Z,17.07
2019-03-23T21:13:18.616Z,16.10
2019-03-23T21:15:46.746Z,16.50
2019-03-23T21:18:14.799Z,16.77
2019-03-23T21:20:43.005Z,17.90
2019-03-23T21:23:11.060Z,18.77
2019-03-23T21:25:39.158Z,17.73
2019-03-23T21:28:08.689Z,16.13
2019-03-23T21:30:36.829Z,16.10
2019-03-23T21:33:06.085Z,15.90
2019-03-23T21:35:34.176Z,14.83
2019-03-23T21:38:14.488Z,16.13
2019-03-23T21:40:42.685Z,16.53
2019-03-23T21:43:10.884Z,15.97
2019-03-23T21:45:39.256Z,15.33
2019-03-23T21:48:07.497Z,14.67
2019-03-23T21:50:35.661Z,15.67
2019-03-23T21:53:03.750Z,14.77
2019-03-23T21:55:31.894Z,15.57
2019-03-23T21:57:59.923Z,15.93
2019-03-23T22:00:32.556Z,14.60
2019-03-23T22:03:01.089Z,14.70
2019-03-23T22:05:29.149Z,14.20
2019-03-23T22:07:57.226Z,13.23
2019-03-23T22:10:25.260Z,13.90
2019-03-23T22:12:53.258Z,13.87
2019-03-23T22:15:21.321Z,10.90
2019-03-23T22:17:49.458Z,11.47
2019-03-23T22:20:17.679Z,10.63
2019-03-23T22:22:45.790Z,11.97
2019-03-23T22:25:13.864Z,10.37
2019-03-23T22:27:41.931Z,11.23
2019-03-23T22:30:10.885Z,11.23
2019-03-23T22:32:39.035Z,10.20
2019-03-23T22:35:07.274Z,11.57
2019-03-23T22:37:35.348Z,11.17
2019-03-23T22:40:04.110Z,11.03
2019-03-23T22:42:32.145Z,11.03
2019-03-23T22:45:00.342Z,11.23
2019-03-23T22:47:28.517Z,12.00
2019-03-23T22:49:56.616Z,11.50
2019-03-23T22:52:24.747Z,12.27
2019-03-23T22:54:52.909Z,11.43
2019-03-23T22:57:21.062Z,11.67
2019-03-23T22:59:49.080Z,12.23
2019-03-23T23:02:17.233Z,10.80
2019-03-23T23:04:45.288Z,11.27
2019-03-23T23:07:13.448Z,10.97
2019-03-23T23:09:41.554Z,10.43
2019-03-23T23:12:09.709Z,10.27
2019-03-23T23:14:37.859Z,9.87
2019-03-23T23:17:05.948Z,9.27
2019-03-23T23:19:33.941Z,10.77
2019-03-23T23:22:02.148Z,10.23
2019-03-23T23:24:30.318Z,10.70
2019-03-23T23:26:58.603Z,9.57
2019-03-23T23:29:28.996Z,9.47
2019-03-23T23:31:56.854Z,9.70
2019-03-23T23:34:24.969Z,9.33
2019-03-23T23:36:53.134Z,9.97
2019-03-23T23:39:21.259Z,9.50
2019-03-23T23:41:49.415Z,8.50
2019-03-23T23:44:17.545Z,8.50
2019-03-23T23:46:45.675Z,8.37
2019-03-23T23:49:13.789Z,7.40
2019-03-23T23:51:49.750Z,8.90
2019-03-23T23:54:11.828Z,8.03
2019-03-23T23:56:40.006Z,7.33
2019-03-23T23:59:08.091Z,8.53
